Latest Conditions
At L.F.Wade Int. Airport
Recorded at 7:55 am
Mostly Cloudy
Temp.: 
23°C/74°F
Humidity: 
90%
Wind: 
WSW 11KT
or 13mph
UV Index: 
1
Island Observations
 
Observations
Friday, May 20, 2022

Observations are in local time and taken at least once an hour, or upon the start and end of specified events such as showers and thunderstorms.

Time Sky / Weather Wind Speed/Gusts Temp. R.H. Pressure
     knots (mph)  °C (°F)  %  mb / "Hg
 07:55 Mostly Cloudy  WSW 11/0 (13/0) 23(74) 90 1020 / 30.12
 06:55 Mostly Cloudy  SW 10/0 (12/0) 23(73) 92 1019 / 30.09
 05:55 Mostly Cloudy  SW 9/0 (10/0) 23(73) 92 1019 / 30.08
 05:46 Mostly Cloudy  SW 9/0 (10/0) 22(72) 92 1019 / 30.08
 04:55 Partly Cloudy  SW 8/0 (9/0) 23(73) 89 1018 / 30.07
 04:06 Partly Cloudy  SW 9/0 (10/0) 23(73) 90 1018 / 30.07
 03:55 Mostly Cloudy  SW 8/0 (9/0) 23(73) 88 1018 / 30.07
 02:55 Mostly Cloudy  SW 8/0 (9/0) 23(73) 91 1018 / 30.07
 01:55 Mostly Cloudy  SW 9/0 (10/0) 23(73) 90 1019 / 30.09
 00:55 Mostly Cloudy  SW 8/0 (9/0) 23(73) 89 1019 / 30.09
 23:55 Partly Cloudy  SW 8/0 (9/0) 23(73) 91 1019 / 30.09
 22:55 Partly Cloudy  SW 9/0 (10/0) 23(73) 90 1019 / 30.08
 21:55 Partly Cloudy  WSW 9/0 (10/0) 23(74) 91 1018 / 30.07
 20:55 Partly Cloudy  SW 8/0 (9/0) 23(74) 89 1018 / 30.05
 19:55 Mostly Cloudy  SW 8/0 (9/0) 23(74) 86 1017 / 30.03
 19:43 Mostly Cloudy  SW 8/0 (9/0) 24(74) 86 1017 / 30.03
 18:55 Partly Cloudy  WSW 7/0 (8/0) 24(76) 83 1017 / 30.02
 17:55 Partly Cloudy  W 10/0 (12/0) 24(76) 82 1017 / 30.03
 16:55 Partly Cloudy  W 10/0 (12/0) 25(77) 77 1017 / 30.04
 15:55 Partly Cloudy  W 10/0 (12/0) 25(77) 75 1017 / 30.04
 15:13 Partly Cloudy  W 10/0 (12/0) 25(77) 80 1017 / 30.04
 14:55 Partly Cloudy  SSW 9/0 (10/0) 26(78) 77 1017 / 30.04
 13:55 Partly Cloudy  SSW 9/0 (10/0) 25(77) 76 1018 / 30.07
 12:55 Few Clouds  SSW 6/0 (7/0) 25(76) 79 1018 / 30.06
 11:55 Few Clouds  S 3/0 (3/0) 25(76) 77 1018 / 30.07
 10:55 Partly Cloudy  SSW 5/0 (6/0) 24(75) 79 1018 / 30.07
 09:55 Partly Cloudy  VRB 2/0 (2/0) 24(74) 80 1018 / 30.07
 08:55 Mostly Cloudy  W 4/0 (5/0) 23(73) 84 1018 / 30.06
 07:55 Mostly Cloudy  WNW 3/0 (3/0) 22(72) 88 1018 / 30.06
 06:55 Partly Cloudy  VRB 2/0 (2/0) 22(71) 91 1017 / 30.03
 05:55 Few Clouds  WSW 4/0 (5/0) 21(70) 93 1017 / 30.02
 04:55 Few Clouds  SW 4/0 (5/0) 22(71) 94 1017 / 30.02
 03:55 Few Clouds  W 3/0 (3/0) 21(71) 92 1017 / 30.02
 02:55 Few Clouds  W 3/0 (3/0) 22(71) 92 1016 / 30.01
 02:29 Few Clouds  WNW 5/0 (6/0) 22(71) 93 1016 / 30.01
 01:55 Mostly Cloudy  WNW 3/0 (3/0) 22(71) 93 1017 / 30.02
 00:55 Few Clouds  WNW 2/0 (2/0) 22(71) 94 1017 / 30.03
 23:55 Few Clouds  WNW 3/0 (3/0) 22(71) 93 1017 / 30.03
 22:55 Partly Cloudy  WNW 3/0 (3/0) 22(72) 93 1017 / 30.03
 21:55 Few Clouds  WNW 4/0 (5/0) 22(72) 93 1017 / 30.02
 20:55 Mostly Cloudy  W 7/0 (8/0) 22(72) 93 1016 / 30.00
 19:55 Mostly Cloudy  W 10/0 (12/0) 23(73) 93 1016 / 29.99
 18:55 Mostly Cloudy  W 11/0 (13/0) 24(74) 87 1016 / 29.99
 17:55 Mostly Cloudy  W 13/0 (15/0) 24(75) 87 1016 / 29.99
 17:23 Mostly Cloudy Showers W 15/0 (17/0) 24(76) 87 1016 / 29.99
 16:55 Mostly Cloudy Showers W 13/0 (15/0) 24(76) 88 1016 / 29.99
 15:55 Mostly Cloudy  W 14/0 (16/0) 25(77) 85 1016 / 29.99
 15:21 Mostly Cloudy  W 13/0 (15/0) 25(76) 84 1016 / 29.99
 14:55 Mostly Cloudy  W 12/0 (14/0) 24(76) 85 1016 / 30.00
 13:55 Mostly Cloudy  W 12/0 (14/0) 25(76) 85 1016 / 30.01
 12:55 Mostly Cloudy  W 13/0 (15/0) 24(76) 84 1017 / 30.02
 11:55 Mostly Cloudy  W 13/0 (15/0) 25(76) 86 1017 / 30.02
 10:55 Mostly Cloudy  W 13/0 (15/0) 24(75) 88 1017 / 30.02
 09:55 Mostly Cloudy  W 11/0 (13/0) 24(75) 88 1016 / 30.01
 08:55 Mostly Cloudy  W 11/0 (13/0) 23(73) 90 1016 / 30.00
 07:55 Mostly Cloudy  W 10/0 (12/0) 22(72) 92 1016 / 30.00
 06:55 Partly Cloudy  W 10/0 (12/0) 22(71) 94 1016 / 29.99
 05:55 Mostly Cloudy  W 9/0 (10/0) 22(71) 93 1015 / 29.96
 05:06 Mostly Cloudy  W 10/0 (12/0) 22(71) 94 1015 / 29.97
 04:55 Mostly Cloudy  W 11/0 (13/0) 22(71) 94 1015 / 29.97
 04:20 Overcast  W 10/0 (12/0) 22(72) 92 1015 / 29.97
 03:55 Overcast  WNW 9/0 (10/0) 22(72) 93 1015 / 29.96
 02:55 Overcast  W 9/0 (10/0) 22(72) 95 1015 / 29.97
 02:31 Overcast  W 7/0 (8/0) 22(71) 95 1015 / 29.97
 01:55 Overcast  W 8/0 (9/0) 22(72) 94 1015 / 29.98
 00:55 Overcast  WSW 9/0 (10/0) 22(72) 96 1016 / 29.99
 00:39 Overcast  WSW 8/0 (9/0) 22(72) 96 1016 / 29.99
 23:55 Overcast  SW 10/0 (12/0) 22(72) 96 1016 / 30.00
 22:55 Overcast  SW 12/0 (14/0) 22(71) 96 1016 / 30.00
 22:14 Overcast  SW 14/0 (16/0) 22(71) 96 1016 / 30.01
 21:55 Overcast Showers SW 13/0 (15/0) 22(71) 97 1016 / 30.00
 21:32 Overcast Showers SW 15/0 (17/0) 22(71) 96 1016 / 29.99
 21:13 Overcast  SW 14/0 (16/0) 21(71) 96 1016 / 30.00
 20:55 Overcast Drizzle SW 14/0 (16/0) 21(70) 96 1016 / 29.99
 20:32 Overcast Drizzle SW 14/0 (16/0) 21(70) 96 1016 / 29.99
 20:11 Mostly Cloudy Rain SSW 19/0 (22/0) 21(69) 98 1016 / 29.99
 19:58 Overcast Rain SSW 18/0 (21/0) 21(70) 98 1016 / 29.99
 19:55 Overcast Rain SSW 17/0 (20/0) 22(71) 97 1016 / 29.99
 19:16 Overcast Drizzle SW 15/0 (17/0) 22(71) 96 1016 / 29.99
 18:55 Overcast Rain SW 15/0 (17/0) 22(71) 96 1016 / 30.00
 17:55 Overcast Showers SW 16/0 (18/0) 22(71) 94 1016 / 30.00
 17:34 Overcast Showers SW 13/0 (15/0) 22(72) 96 1016 / 30.00
 16:55 Overcast Showers SW 21/32 (24/37) 21(71) 97 1016 / 30.00
 16:41 Overcast Showers SSW 16/26 (18/30) 22(72) 95 1016 / 30.01
 16:29 Overcast Showers SSW 15/0 (17/0) 23(73) 96 1016 / 30.00
 16:05 Overcast Showers SSW 15/0 (17/0) 23(73) 96 1016 / 30.01
 15:55 Overcast Showers SSW 14/0 (16/0) 23(73) 96 1016 / 30.00
 14:55 Overcast Showers S 12/0 (14/0) 23(74) 95 1017 / 30.02
 14:46 Mostly Cloudy Showers SSW 12/0 (14/0) 24(76) 91 1017 / 30.02
 14:18 Mostly Cloudy  SSW 10/0 (12/0) 25(76) 89 1017 / 30.04
 13:55 Overcast  SSW 10/0 (12/0) 24(76) 89 1017 / 30.04
 12:55 Overcast  SSW 9/0 (10/0) 24(75) 89 1018 / 30.06
 11:55 Overcast Rain SSW 11/0 (13/0) 23(74) 95 1019 / 30.08
 11:19 Overcast Rain SW 10/0 (12/0) 23(74) 95 1018 / 30.07
 10:55 Overcast  SSW 10/0 (12/0) 23(74) 94 1018 / 30.06
 09:55 Overcast  SSW 10/0 (12/0) 23(74) 93 1018 / 30.07
 08:55 Overcast  SSW 11/0 (13/0) 23(73) 90 1019 / 30.08
 07:55 Overcast  SSW 10/0 (12/0) 22(72) 92 1018 / 30.05
 06:55 Overcast Rain SSW 12/0 (14/0) 22(72) 96 1018 / 30.05
 05:55 Overcast Rain SSW 13/0 (15/0) 23(73) 96 1018 / 30.06
Island AWOS